sensor_id;sensor_type;location;lat;lon;timestamp;temperature;humidity
9177;DHT22;4623;54.310;10.112;2022-08-25T00:02:07;20.90;99.90
9177;DHT22;4623;54.310;10.112;2022-08-25T00:04:34;21.00;99.90
9177;DHT22;4623;54.310;10.112;2022-08-25T00:07:00;21.00;99.90
9177;DHT22;4623;54.310;10.112;2022-08-25T00:09:26;21.00;99.90
9177;DHT22;4623;54.310;10.112;2022-08-25T00:11:52;21.00;99.90
9177;DHT22;4623;54.310;10.112;2022-08-25T00:14:25;21.00;99.90
9177;DHT22;4623;54.310;10.112;2022-08-25T00:16:51;21.00;99.90
9177;DHT22;4623;54.310;10.112;2022-08-25T00:19:21;20.90;99.90
9177;DHT22;4623;54.310;10.112;2022-08-25T00:21:47;20.90;99.90
9177;DHT22;4623;54.310;10.112;2022-08-25T00:24:15;20.90;99.90
9177;DHT22;4623;54.310;10.112;2022-08-25T00:26:43;20.90;99.90
9177;DHT22;4623;54.310;10.112;2022-08-25T00:29:10;20.90;99.90
9177;DHT22;4623;54.310;10.112;2022-08-25T00:31:36;20.80;99.90
9177;DHT22;4623;54.310;10.112;2022-08-25T00:34:02;20.80;99.90
9177;DHT22;4623;54.310;10.112;2022-08-25T00:36:30;20.70;99.90
9177;DHT22;4623;54.310;10.112;2022-08-25T00:38:56;20.70;99.90
9177;DHT22;4623;54.310;10.112;2022-08-25T00:41:23;20.70;99.90
9177;DHT22;4623;54.310;10.112;2022-08-25T00:43:52;20.70;99.90
9177;DHT22;4623;54.310;10.112;2022-08-25T00:46:28;20.60;99.90
9177;DHT22;4623;54.310;10.112;2022-08-25T00:49:19;20.60;99.90
9177;DHT22;4623;54.310;10.112;2022-08-25T00:51:54;20.60;99.90
9177;DHT22;4623;54.310;10.112;2022-08-25T00:54:27;20.60;99.90
9177;DHT22;4623;54.310;10.112;2022-08-25T00:56:55;20.60;99.90
9177;DHT22;4623;54.310;10.112;2022-08-25T00:59:22;20.60;99.90
9177;DHT22;4623;54.310;10.112;2022-08-25T01:01:49;20.60;99.90
9177;DHT22;4623;54.310;10.112;2022-08-25T01:04:16;20.50;99.90
9177;DHT22;4623;54.310;10.112;2022-08-25T01:06:42;20.50;99.90
9177;DHT22;4623;54.310;10.112;2022-08-25T01:09:12;20.50;99.90
9177;DHT22;4623;54.310;10.112;2022-08-25T01:11:40;20.40;99.90
9177;DHT22;4623;54.310;10.112;2022-08-25T01:14:07;20.40;99.90
9177;DHT22;4623;54.310;10.112;2022-08-25T01:16:35;20.40;99.90
9177;DHT22;4623;54.310;10.112;2022-08-25T01:19:02;20.40;99.90
9177;DHT22;4623;54.310;10.112;2022-08-25T01:21:30;20.30;99.90
9177;DHT22;4623;54.310;10.112;2022-08-25T01:23:59;20.30;99.90
9177;DHT22;4623;54.310;10.112;2022-08-25T01:26:30;20.20;99.90
9177;DHT22;4623;54.310;10.112;2022-08-25T01:28:59;20.30;99.90
9177;DHT22;4623;54.310;10.112;2022-08-25T01:31:44;20.20;99.90
9177;DHT22;4623;54.310;10.112;2022-08-25T01:34:11;20.20;99.90
9177;DHT22;4623;54.310;10.112;2022-08-25T01:36:38;20.20;99.90
9177;DHT22;4623;54.310;10.112;2022-08-25T01:39:04;20.20;99.90
9177;DHT22;4623;54.310;10.112;2022-08-25T01:44:14;20.10;99.90
9177;DHT22;4623;54.310;10.112;2022-08-25T01:46:40;20.10;99.90
9177;DHT22;4623;54.310;10.112;2022-08-25T01:49:06;20.10;99.90
9177;DHT22;4623;54.310;10.112;2022-08-25T01:51:37;20.10;99.90
9177;DHT22;4623;54.310;10.112;2022-08-25T01:54:03;20.10;99.90
9177;DHT22;4623;54.310;10.112;2022-08-25T01:56:29;20.10;99.90
9177;DHT22;4623;54.310;10.112;2022-08-25T01:58:55;20.10;99.90
9177;DHT22;4623;54.310;10.112;2022-08-25T02:01:23;20.10;99.90
9177;DHT22;4623;54.310;10.112;2022-08-25T02:03:50;20.10;99.90
9177;DHT22;4623;54.310;10.112;2022-08-25T02:06:23;20.10;99.90
9177;DHT22;4623;54.310;10.112;2022-08-25T02:08:53;20.10;99.90
9177;DHT22;4623;54.310;10.112;2022-08-25T02:11:20;20.10;99.90
9177;DHT22;4623;54.310;10.112;2022-08-25T02:13:49;20.10;99.90
9177;DHT22;4623;54.310;10.112;2022-08-25T02:16:24;20.00;99.90
9177;DHT22;4623;54.310;10.112;2022-08-25T02:18:53;20.10;99.90
9177;DHT22;4623;54.310;10.112;2022-08-25T02:21:19;20.00;99.90
9177;DHT22;4623;54.310;10.112;2022-08-25T02:23:44;20.00;99.90
9177;DHT22;4623;54.310;10.112;2022-08-25T02:26:10;19.90;99.90
9177;DHT22;4623;54.310;10.112;2022-08-25T02:28:43;20.00;99.90
9177;DHT22;4623;54.310;10.112;2022-08-25T02:31:09;20.00;99.90
9177;DHT22;4623;54.310;10.112;2022-08-25T02:33:34;20.00;99.90
9177;DHT22;4623;54.310;10.112;2022-08-25T02:36:00;20.00;99.90
9177;DHT22;4623;54.310;10.112;2022-08-25T02:38:27;20.00;99.90
9177;DHT22;4623;54.310;10.112;2022-08-25T02:40:54;20.00;99.90
9177;DHT22;4623;54.310;10.112;2022-08-25T02:43:20;19.90;99.90
9177;DHT22;4623;54.310;10.112;2022-08-25T02:45:46;19.90;99.90
9177;DHT22;4623;54.310;10.112;2022-08-25T02:48:11;19.90;99.90
9177;DHT22;4623;54.310;10.112;2022-08-25T02:50:37;19.90;99.90
9177;DHT22;4623;54.310;10.112;2022-08-25T02:53:03;19.90;99.90
9177;DHT22;4623;54.310;10.112;2022-08-25T02:55:29;19.90;99.90
9177;DHT22;4623;54.310;10.112;2022-08-25T02:57:54;19.90;99.90
9177;DHT22;4623;54.310;10.112;2022-08-25T03:00:20;19.90;99.90
9177;DHT22;4623;54.310;10.112;2022-08-25T03:02:46;19.90;99.90
9177;DHT22;4623;54.310;10.112;2022-08-25T03:05:12;19.80;99.90
9177;DHT22;4623;54.310;10.112;2022-08-25T03:07:39;19.80;99.90
9177;DHT22;4623;54.310;10.112;2022-08-25T03:10:07;19.80;99.90
9177;DHT22;4623;54.310;10.112;2022-08-25T03:12:33;19.80;99.90
9177;DHT22;4623;54.310;10.112;2022-08-25T03:14:58;19.80;99.90
9177;DHT22;4623;54.310;10.112;2022-08-25T03:17:24;19.70;99.90
9177;DHT22;4623;54.310;10.112;2022-08-25T03:19:49;19.70;99.90
9177;DHT22;4623;54.310;10.112;2022-08-25T03:22:15;19.70;99.90
9177;DHT22;4623;54.310;10.112;2022-08-25T03:24:41;19.70;99.90
9177;DHT22;4623;54.310;10.112;2022-08-25T03:27:06;19.70;99.90
9177;DHT22;4623;54.310;10.112;2022-08-25T03:29:33;19.60;99.90
9177;DHT22;4623;54.310;10.112;2022-08-25T03:31:59;19.70;99.90
9177;DHT22;4623;54.310;10.112;2022-08-25T03:34:27;19.60;99.90
9177;DHT22;4623;54.310;10.112;2022-08-25T03:36:53;19.60;99.90
9177;DHT22;4623;54.310;10.112;2022-08-25T03:39:21;19.70;99.90
9177;DHT22;4623;54.310;10.112;2022-08-25T03:41:47;19.70;99.90
9177;DHT22;4623;54.310;10.112;2022-08-25T03:44:15;19.60;99.90
9177;DHT22;4623;54.310;10.112;2022-08-25T03:46:46;19.60;99.90
9177;DHT22;4623;54.310;10.112;2022-08-25T03:49:16;19.60;99.90
9177;DHT22;4623;54.310;10.112;2022-08-25T03:51:48;19.70;99.90
9177;DHT22;4623;54.310;10.112;2022-08-25T03:54:16;19.70;99.90
9177;DHT22;4623;54.310;10.112;2022-08-25T03:56:42;19.70;99.90
9177;DHT22;4623;54.310;10.112;2022-08-25T03:59:08;19.70;99.90
9177;DHT22;4623;54.310;10.112;2022-08-25T04:01:39;19.70;99.90
9177;DHT22;4623;54.310;10.112;2022-08-25T04:04:07;19.70;99.90
9177;DHT22;4623;54.310;10.112;2022-08-25T04:06:33;19.70;99.90
9177;DHT22;4623;54.310;10.112;2022-08-25T04:08:58;19.70;99.90
9177;DHT22;4623;54.310;10.112;2022-08-25T04:11:26;19.60;99.90
9177;DHT22;4623;54.310;10.112;2022-08-25T04:13:54;19.60;99.90
9177;DHT22;4623;54.310;10.112;2022-08-25T04:16:22;19.60;99.90
9177;DHT22;4623;54.310;10.112;2022-08-25T04:18:49;19.60;99.90
9177;DHT22;4623;54.310;10.112;2022-08-25T04:21:17;19.60;99.90
9177;DHT22;4623;54.310;10.112;2022-08-25T04:23:43;19.60;99.90
9177;DHT22;4623;54.310;10.112;2022-08-25T04:26:11;19.60;99.90
9177;DHT22;4623;54.310;10.112;2022-08-25T04:28:37;19.60;99.90
9177;DHT22;4623;54.310;10.112;2022-08-25T04:31:07;19.70;99.90
9177;DHT22;4623;54.310;10.112;2022-08-25T04:33:34;19.80;99.90
9177;DHT22;4623;54.310;10.112;2022-08-25T04:36:00;19.80;99.90
9177;DHT22;4623;54.310;10.112;2022-08-25T04:38:25;19.80;99.90
9177;DHT22;4623;54.310;10.112;2022-08-25T04:41:02;19.90;99.90
9177;DHT22;4623;54.310;10.112;2022-08-25T04:43:29;19.90;99.90
9177;DHT22;4623;54.310;10.112;2022-08-25T04:45:55;19.90;99.90
9177;DHT22;4623;54.310;10.112;2022-08-25T04:48:20;20.00;99.90
9177;DHT22;4623;54.310;10.112;2022-08-25T04:50:46;19.90;99.90
9177;DHT22;4623;54.310;10.112;2022-08-25T04:53:12;19.90;99.90
9177;DHT22;4623;54.310;10.112;2022-08-25T04:55:43;19.80;99.90
9177;DHT22;4623;54.310;10.112;2022-08-25T04:58:09;19.80;99.90
9177;DHT22;4623;54.310;10.112;2022-08-25T05:00:36;19.60;99.90
9177;DHT22;4623;54.310;10.112;2022-08-25T05:03:03;19.60;99.90
9177;DHT22;4623;54.310;10.112;2022-08-25T05:05:30;19.60;99.90
9177;DHT22;4623;54.310;10.112;2022-08-25T05:07:56;19.50;99.90
9177;DHT22;4623;54.310;10.112;2022-08-25T05:10:22;19.50;99.90
9177;DHT22;4623;54.310;10.112;2022-08-25T05:12:48;19.50;99.90
9177;DHT22;4623;54.310;10.112;2022-08-25T05:15:14;19.50;99.90
9177;DHT22;4623;54.310;10.112;2022-08-25T05:17:58;19.50;99.90
9177;DHT22;4623;54.310;10.112;2022-08-25T05:20:25;19.40;99.90
9177;DHT22;4623;54.310;10.112;2022-08-25T05:22:51;19.40;99.90
9177;DHT22;4623;54.310;10.112;2022-08-25T05:25:17;19.40;99.90
9177;DHT22;4623;54.310;10.112;2022-08-25T05:27:42;19.40;99.90
9177;DHT22;4623;54.310;10.112;2022-08-25T05:30:11;19.50;99.90
9177;DHT22;4623;54.310;10.112;2022-08-25T05:32:37;19.50;99.90
9177;DHT22;4623;54.310;10.112;2022-08-25T05:35:05;19.50;99.90
9177;DHT22;4623;54.310;10.112;2022-08-25T05:37:30;19.60;99.90
9177;DHT22;4623;54.310;10.112;2022-08-25T05:39:56;19.60;99.90
9177;DHT22;4623;54.310;10.112;2022-08-25T05:42:22;19.70;99.90
9177;DHT22;4623;54.310;10.112;2022-08-25T05:44:48;19.80;99.90
9177;DHT22;4623;54.310;10.112;2022-08-25T05:47:13;19.80;99.90
9177;DHT22;4623;54.310;10.112;2022-08-25T05:49:39;19.90;99.90
9177;DHT22;4623;54.310;10.112;2022-08-25T05:52:05;20.00;99.90
9177;DHT22;4623;54.310;10.112;2022-08-25T05:54:30;20.00;99.90
9177;DHT22;4623;54.310;10.112;2022-08-25T05:56:57;20.10;99.90
9177;DHT22;4623;54.310;10.112;2022-08-25T05:59:23;20.10;99.90
9177;DHT22;4623;54.310;10.112;2022-08-25T06:01:48;20.10;99.90
9177;DHT22;4623;54.310;10.112;2022-08-25T06:04:33;20.20;99.90
9177;DHT22;4623;54.310;10.112;2022-08-25T06:06:58;20.20;99.90
9177;DHT22;4623;54.310;10.112;2022-08-25T06:09:24;20.30;99.90
9177;DHT22;4623;54.310;10.112;2022-08-25T06:11:51;20.40;99.90
9177;DHT22;4623;54.310;10.112;2022-08-25T06:14:17;20.50;99.90
9177;DHT22;4623;54.310;10.112;2022-08-25T06:16:42;20.60;99.90
9177;DHT22;4623;54.310;10.112;2022-08-25T06:19:09;20.60;99.90
9177;DHT22;4623;54.310;10.112;2022-08-25T06:21:35;20.70;99.90
9177;DHT22;4623;54.310;10.112;2022-08-25T06:24:04;20.70;99.90
9177;DHT22;4623;54.310;10.112;2022-08-25T06:26:30;20.80;99.90
9177;DHT22;4623;54.310;10.112;2022-08-25T06:28:56;20.80;99.90
9177;DHT22;4623;54.310;10.112;2022-08-25T06:31:22;20.90;99.90
9177;DHT22;4623;54.310;10.112;2022-08-25T06:33:49;20.90;99.90
9177;DHT22;4623;54.310;10.112;2022-08-25T06:36:15;21.00;99.90
9177;DHT22;4623;54.310;10.112;2022-08-25T06:38:40;21.00;99.90
9177;DHT22;4623;54.310;10.112;2022-08-25T06:41:07;21.00;99.90
9177;DHT22;4623;54.310;10.112;2022-08-25T06:43:35;20.90;99.90
9177;DHT22;4623;54.310;10.112;2022-08-25T06:46:11;20.90;99.90
9177;DHT22;4623;54.310;10.112;2022-08-25T06:48:38;21.00;99.90
9177;DHT22;4623;54.310;10.112;2022-08-25T06:51:06;21.10;99.90
9177;DHT22;4623;54.310;10.112;2022-08-25T06:53:31;21.10;99.90
9177;DHT22;4623;54.310;10.112;2022-08-25T06:55:57;21.30;99.90
9177;DHT22;4623;54.310;10.112;2022-08-25T06:58:23;21.30;99.90
9177;DHT22;4623;54.310;10.112;2022-08-25T07:00:49;21.30;99.90
9177;DHT22;4623;54.310;10.112;2022-08-25T07:03:14;21.40;99.90
9177;DHT22;4623;54.310;10.112;2022-08-25T07:05:40;21.40;99.90
9177;DHT22;4623;54.310;10.112;2022-08-25T07:08:06;21.40;99.90
9177;DHT22;4623;54.310;10.112;2022-08-25T07:10:31;21.40;99.90
9177;DHT22;4623;54.310;10.112;2022-08-25T07:12:57;21.40;99.90
9177;DHT22;4623;54.310;10.112;2022-08-25T07:15:23;21.40;99.90
9177;DHT22;4623;54.310;10.112;2022-08-25T07:17:49;21.40;99.90
9177;DHT22;4623;54.310;10.112;2022-08-25T07:20:16;21.40;99.90
9177;DHT22;4623;54.310;10.112;2022-08-25T07:22:42;21.40;99.90
9177;DHT22;4623;54.310;10.112;2022-08-25T07:25:08;21.50;99.90
9177;DHT22;4623;54.310;10.112;2022-08-25T07:27:35;21.50;99.90
9177;DHT22;4623;54.310;10.112;2022-08-25T07:30:02;21.60;99.90
9177;DHT22;4623;54.310;10.112;2022-08-25T07:32:28;21.60;99.90
9177;DHT22;4623;54.310;10.112;2022-08-25T07:34:53;21.60;99.90
9177;DHT22;4623;54.310;10.112;2022-08-25T07:37:38;21.60;99.90
9177;DHT22;4623;54.310;10.112;2022-08-25T07:40:05;21.70;99.90
9177;DHT22;4623;54.310;10.112;2022-08-25T07:42:31;21.70;99.90
9177;DHT22;4623;54.310;10.112;2022-08-25T07:44:56;21.80;99.90
9177;DHT22;4623;54.310;10.112;2022-08-25T07:47:22;21.90;99.90
9177;DHT22;4623;54.310;10.112;2022-08-25T07:49:48;21.90;99.90
9177;DHT22;4623;54.310;10.112;2022-08-25T07:52:14;21.90;99.90
9177;DHT22;4623;54.310;10.112;2022-08-25T07:54:40;22.00;99.90
9177;DHT22;4623;54.310;10.112;2022-08-25T07:57:07;22.10;99.90
9177;DHT22;4623;54.310;10.112;2022-08-25T07:59:34;22.20;99.90
9177;DHT22;4623;54.310;10.112;2022-08-25T08:01:59;22.20;99.90
9177;DHT22;4623;54.310;10.112;2022-08-25T08:04:25;22.20;99.90
9177;DHT22;4623;54.310;10.112;2022-08-25T08:06:51;22.20;99.90
9177;DHT22;4623;54.310;10.112;2022-08-25T08:09:16;22.20;99.90
9177;DHT22;4623;54.310;10.112;2022-08-25T08:11:42;22.30;99.90
9177;DHT22;4623;54.310;10.112;2022-08-25T08:14:09;22.40;99.90
9177;DHT22;4623;54.310;10.112;2022-08-25T08:16:35;22.30;99.90
9177;DHT22;4623;54.310;10.112;2022-08-25T08:19:02;22.50;99.90
9177;DHT22;4623;54.310;10.112;2022-08-25T08:21:31;22.50;99.90
9177;DHT22;4623;54.310;10.112;2022-08-25T08:23:57;22.60;99.90
9177;DHT22;4623;54.310;10.112;2022-08-25T08:26:24;22.70;99.90
9177;DHT22;4623;54.310;10.112;2022-08-25T08:28:50;22.70;99.90
9177;DHT22;4623;54.310;10.112;2022-08-25T08:31:21;22.90;99.90
9177;DHT22;4623;54.310;10.112;2022-08-25T08:33:49;22.90;99.90
9177;DHT22;4623;54.310;10.112;2022-08-25T08:36:15;22.90;99.90
9177;DHT22;4623;54.310;10.112;2022-08-25T08:38:42;22.90;99.90
9177;DHT22;4623;54.310;10.112;2022-08-25T08:44:27;23.10;99.90
9177;DHT22;4623;54.310;10.112;2022-08-25T08:47:10;23.20;99.90
9177;DHT22;4623;54.310;10.112;2022-08-25T08:49:48;23.30;99.90
9177;DHT22;4623;54.310;10.112;2022-08-25T08:52:21;23.40;99.90
9177;DHT22;4623;54.310;10.112;2022-08-25T08:54:54;23.30;99.90
9177;DHT22;4623;54.310;10.112;2022-08-25T08:57:26;23.40;99.90
9177;DHT22;4623;54.310;10.112;2022-08-25T08:59:59;23.40;99.90
9177;DHT22;4623;54.310;10.112;2022-08-25T09:02:33;23.50;99.90
9177;DHT22;4623;54.310;10.112;2022-08-25T09:05:07;23.70;99.90
9177;DHT22;4623;54.310;10.112;2022-08-25T09:08:03;23.90;99.90
9177;DHT22;4623;54.310;10.112;2022-08-25T09:10:40;24.30;99.90
9177;DHT22;4623;54.310;10.112;2022-08-25T09:13:23;24.60;99.90
9177;DHT22;4623;54.310;10.112;2022-08-25T09:16:03;25.20;99.90
9177;DHT22;4623;54.310;10.112;2022-08-25T09:21:44;26.60;99.90
9177;DHT22;4623;54.310;10.112;2022-08-25T09:27:12;27.20;99.90
9177;DHT22;4623;54.310;10.112;2022-08-25T09:30:04;27.20;99.90
9177;DHT22;4623;54.310;10.112;2022-08-25T09:32:34;28.50;99.90
9177;DHT22;4623;54.310;10.112;2022-08-25T09:35:03;28.90;99.90
9177;DHT22;4623;54.310;10.112;2022-08-25T09:37:29;29.00;99.90
9177;DHT22;4623;54.310;10.112;2022-08-25T09:39:55;29.50;99.90
9177;DHT22;4623;54.310;10.112;2022-08-25T09:42:20;29.30;99.90
9177;DHT22;4623;54.310;10.112;2022-08-25T09:44:47;29.10;99.90
9177;DHT22;4623;54.310;10.112;2022-08-25T09:49:45;28.70;99.90
9177;DHT22;4623;54.310;10.112;2022-08-25T09:52:50;28.20;99.90
9177;DHT22;4623;54.310;10.112;2022-08-25T10:02:38;28.10;99.90
9177;DHT22;4623;54.310;10.112;2022-08-25T10:05:23;28.20;99.90
9177;DHT22;4623;54.310;10.112;2022-08-25T10:07:56;29.10;99.90
9177;DHT22;4623;54.310;10.112;2022-08-25T10:10:33;29.60;99.90
9177;DHT22;4623;54.310;10.112;2022-08-25T10:13:01;30.30;97.40
9177;DHT22;4623;54.310;10.112;2022-08-25T10:15:36;30.10;98.50
9177;DHT22;4623;54.310;10.112;2022-08-25T10:18:26;29.50;98.60
9177;DHT22;4623;54.310;10.112;2022-08-25T10:21:11;30.10;94.80
9177;DHT22;4623;54.310;10.112;2022-08-25T10:23:49;31.30;94.70
9177;DHT22;4623;54.310;10.112;2022-08-25T10:34:47;31.70;95.60
9177;DHT22;4623;54.310;10.112;2022-08-25T10:45:22;32.30;82.50
9177;DHT22;4623;54.310;10.112;2022-08-25T10:56:14;33.00;85.90
9177;DHT22;4623;54.310;10.112;2022-08-25T11:04:06;33.30;71.60
9177;DHT22;4623;54.310;10.112;2022-08-25T11:06:41;32.00;78.10
9177;DHT22;4623;54.310;10.112;2022-08-25T11:09:14;32.20;80.20
9177;DHT22;4623;54.310;10.112;2022-08-25T11:11:57;31.10;79.30
9177;DHT22;4623;54.310;10.112;2022-08-25T11:17:15;30.70;89.70
9177;DHT22;4623;54.310;10.112;2022-08-25T11:19:47;31.50;83.30
9177;DHT22;4623;54.310;10.112;2022-08-25T11:22:28;31.40;84.90
9177;DHT22;4623;54.310;10.112;2022-08-25T11:25:14;31.10;83.10
9177;DHT22;4623;54.310;10.112;2022-08-25T11:28:05;32.00;82.40
9177;DHT22;4623;54.310;10.112;2022-08-25T11:30:32;32.70;77.90
9177;DHT22;4623;54.310;10.112;2022-08-25T11:32:58;32.60;77.80
9177;DHT22;4623;54.310;10.112;2022-08-25T11:35:32;32.70;77.50
9177;DHT22;4623;54.310;10.112;2022-08-25T11:44:11;32.10;77.30
9177;DHT22;4623;54.310;10.112;2022-08-25T11:55:14;32.00;75.10
9177;DHT22;4623;54.310;10.112;2022-08-25T11:57:42;31.80;78.20
9177;DHT22;4623;54.310;10.112;2022-08-25T12:00:10;32.10;80.90
9177;DHT22;4623;54.310;10.112;2022-08-25T12:02:42;33.20;79.00
9177;DHT22;4623;54.310;10.112;2022-08-25T12:08:04;33.60;67.10
9177;DHT22;4623;54.310;10.112;2022-08-25T12:11:03;33.40;66.80
9177;DHT22;4623;54.310;10.112;2022-08-25T12:13:46;32.10;69.80
9177;DHT22;4623;54.310;10.112;2022-08-25T12:27:39;31.40;80.50
9177;DHT22;4623;54.310;10.112;2022-08-25T12:30:13;31.10;79.20
9177;DHT22;4623;54.310;10.112;2022-08-25T12:35:25;30.90;81.80
9177;DHT22;4623;54.310;10.112;2022-08-25T12:43:51;30.10;87.30
9177;DHT22;4623;54.310;10.112;2022-08-25T12:52:18;30.70;90.20
9177;DHT22;4623;54.310;10.112;2022-08-25T12:54:58;31.60;89.60
9177;DHT22;4623;54.310;10.112;2022-08-25T12:58:06;32.60;81.50
9177;DHT22;4623;54.310;10.112;2022-08-25T13:00:28;33.20;78.40
9177;DHT22;4623;54.310;10.112;2022-08-25T13:03:19;33.80;76.50
9177;DHT22;4623;54.310;10.112;2022-08-25T13:12:04;33.70;70.30
9177;DHT22;4623;54.310;10.112;2022-08-25T13:14:36;34.00;71.60
9177;DHT22;4623;54.310;10.112;2022-08-25T13:17:02;34.20;73.30
9177;DHT22;4623;54.310;10.112;2022-08-25T13:19:28;34.00;69.30
9177;DHT22;4623;54.310;10.112;2022-08-25T13:21:56;34.40;66.90
9177;DHT22;4623;54.310;10.112;2022-08-25T13:24:29;33.30;67.40
9177;DHT22;4623;54.310;10.112;2022-08-25T13:27:03;32.80;69.90
9177;DHT22;4623;54.310;10.112;2022-08-25T13:29:32;32.50;71.90
9177;DHT22;4623;54.310;10.112;2022-08-25T13:32:03;32.80;70.90
9177;DHT22;4623;54.310;10.112;2022-08-25T13:34:34;33.10;73.00
9177;DHT22;4623;54.310;10.112;2022-08-25T13:37:17;33.20;70.30
9177;DHT22;4623;54.310;10.112;2022-08-25T13:42:41;31.50;74.10
9177;DHT22;4623;54.310;10.112;2022-08-25T13:45:08;31.30;76.70
9177;DHT22;4623;54.310;10.112;2022-08-25T13:47:39;31.10;80.20
9177;DHT22;4623;54.310;10.112;2022-08-25T13:53:12;30.10;90.20
9177;DHT22;4623;54.310;10.112;2022-08-25T13:55:48;29.50;93.70
9177;DHT22;4623;54.310;10.112;2022-08-25T13:58:18;28.70;99.30
9177;DHT22;4623;54.310;10.112;2022-08-25T14:01:00;28.40;99.90
9177;DHT22;4623;54.310;10.112;2022-08-25T14:03:38;28.40;99.90
9177;DHT22;4623;54.310;10.112;2022-08-25T14:06:08;28.10;99.90
9177;DHT22;4623;54.310;10.112;2022-08-25T14:08:38;28.00;99.90
9177;DHT22;4623;54.310;10.112;2022-08-25T14:11:13;27.90;99.90
9177;DHT22;4623;54.310;10.112;2022-08-25T14:13:43;27.80;99.90
9177;DHT22;4623;54.310;10.112;2022-08-25T14:16:18;27.70;99.90
9177;DHT22;4623;54.310;10.112;2022-08-25T14:18:50;27.50;99.90
9177;DHT22;4623;54.310;10.112;2022-08-25T14:21:17;27.20;99.90
9177;DHT22;4623;54.310;10.112;2022-08-25T14:23:43;26.90;99.90
9177;DHT22;4623;54.310;10.112;2022-08-25T14:26:09;26.90;99.90
9177;DHT22;4623;54.310;10.112;2022-08-25T14:28:35;26.90;99.90
9177;DHT22;4623;54.310;10.112;2022-08-25T14:31:29;27.00;99.90
9177;DHT22;4623;54.310;10.112;2022-08-25T14:34:03;26.90;99.90
9177;DHT22;4623;54.310;10.112;2022-08-25T14:36:30;26.80;99.90
9177;DHT22;4623;54.310;10.112;2022-08-25T14:38:57;26.70;99.90
9177;DHT22;4623;54.310;10.112;2022-08-25T14:41:24;26.50;99.90
9177;DHT22;4623;54.310;10.112;2022-08-25T14:43:51;26.30;99.90
9177;DHT22;4623;54.310;10.112;2022-08-25T14:46:24;26.30;99.90
9177;DHT22;4623;54.310;10.112;2022-08-25T14:48:54;26.40;99.90
9177;DHT22;4623;54.310;10.112;2022-08-25T14:51:22;26.40;99.90
9177;DHT22;4623;54.310;10.112;2022-08-25T14:53:48;26.40;99.90
9177;DHT22;4623;54.310;10.112;2022-08-25T14:56:14;26.50;99.90
9177;DHT22;4623;54.310;10.112;2022-08-25T14:58:40;26.50;99.90
9177;DHT22;4623;54.310;10.112;2022-08-25T15:01:06;26.50;99.90
9177;DHT22;4623;54.310;10.112;2022-08-25T15:03:37;26.50;99.90
9177;DHT22;4623;54.310;10.112;2022-08-25T15:06:04;26.40;99.90
9177;DHT22;4623;54.310;10.112;2022-08-25T15:08:30;26.40;99.90
9177;DHT22;4623;54.310;10.112;2022-08-25T15:11:15;26.30;99.90
9177;DHT22;4623;54.310;10.112;2022-08-25T15:13:41;26.20;99.90
9177;DHT22;4623;54.310;10.112;2022-08-25T15:16:08;26.10;99.90
9177;DHT22;4623;54.310;10.112;2022-08-25T15:18:35;26.10;99.90
9177;DHT22;4623;54.310;10.112;2022-08-25T15:21:00;26.10;99.90
9177;DHT22;4623;54.310;10.112;2022-08-25T15:23:27;26.00;99.90
9177;DHT22;4623;54.310;10.112;2022-08-25T15:25:53;25.80;99.90
9177;DHT22;4623;54.310;10.112;2022-08-25T15:28:20;25.90;99.90
9177;DHT22;4623;54.310;10.112;2022-08-25T15:30:46;25.90;99.90
9177;DHT22;4623;54.310;10.112;2022-08-25T15:33:12;25.90;99.90
9177;DHT22;4623;54.310;10.112;2022-08-25T15:35:38;25.80;99.90
9177;DHT22;4623;54.310;10.112;2022-08-25T15:38:04;25.90;99.90
9177;DHT22;4623;54.310;10.112;2022-08-25T15:40:29;25.80;99.90
9177;DHT22;4623;54.310;10.112;2022-08-25T15:42:55;25.80;99.90
9177;DHT22;4623;54.310;10.112;2022-08-25T15:45:21;25.80;99.90
9177;DHT22;4623;54.310;10.112;2022-08-25T15:47:47;25.80;99.90
9177;DHT22;4623;54.310;10.112;2022-08-25T15:50:19;25.80;99.90
9177;DHT22;4623;54.310;10.112;2022-08-25T15:52:45;25.80;99.90
9177;DHT22;4623;54.310;10.112;2022-08-25T15:55:11;25.70;99.90
9177;DHT22;4623;54.310;10.112;2022-08-25T15:57:38;25.70;99.90
9177;DHT22;4623;54.310;10.112;2022-08-25T16:00:05;25.70;99.90
9177;DHT22;4623;54.310;10.112;2022-08-25T16:02:31;25.70;99.90
9177;DHT22;4623;54.310;10.112;2022-08-25T16:04:59;25.60;99.90
9177;DHT22;4623;54.310;10.112;2022-08-25T16:07:25;25.60;99.90
9177;DHT22;4623;54.310;10.112;2022-08-25T16:09:54;25.50;99.90
9177;DHT22;4623;54.310;10.112;2022-08-25T16:12:21;25.60;99.90
9177;DHT22;4623;54.310;10.112;2022-08-25T16:14:46;25.50;99.90
9177;DHT22;4623;54.310;10.112;2022-08-25T16:17:12;25.50;99.90
9177;DHT22;4623;54.310;10.112;2022-08-25T16:19:39;25.50;99.90
9177;DHT22;4623;54.310;10.112;2022-08-25T16:22:05;25.50;99.90
9177;DHT22;4623;54.310;10.112;2022-08-25T16:24:31;25.40;99.90
9177;DHT22;4623;54.310;10.112;2022-08-25T16:26:57;25.40;99.90
9177;DHT22;4623;54.310;10.112;2022-08-25T16:29:30;25.30;99.90
9177;DHT22;4623;54.310;10.112;2022-08-25T16:31:56;25.30;99.90
9177;DHT22;4623;54.310;10.112;2022-08-25T16:34:23;25.30;99.90
9177;DHT22;4623;54.310;10.112;2022-08-25T16:36:49;25.30;99.90
9177;DHT22;4623;54.310;10.112;2022-08-25T16:39:15;25.30;99.90
9177;DHT22;4623;54.310;10.112;2022-08-25T16:41:41;25.30;99.90
9177;DHT22;4623;54.310;10.112;2022-08-25T16:44:06;25.20;99.90
9177;DHT22;4623;54.310;10.112;2022-08-25T16:46:32;25.20;99.90
9177;DHT22;4623;54.310;10.112;2022-08-25T16:49:00;25.10;99.90
9177;DHT22;4623;54.310;10.112;2022-08-25T16:51:26;25.00;99.90
9177;DHT22;4623;54.310;10.112;2022-08-25T16:53:51;25.00;99.90
9177;DHT22;4623;54.310;10.112;2022-08-25T16:56:38;25.00;99.90
9177;DHT22;4623;54.310;10.112;2022-08-25T16:59:06;25.00;99.90
9177;DHT22;4623;54.310;10.112;2022-08-25T17:01:33;24.90;99.90
9177;DHT22;4623;54.310;10.112;2022-08-25T17:04:00;24.90;99.90
9177;DHT22;4623;54.310;10.112;2022-08-25T17:06:27;24.90;99.90
9177;DHT22;4623;54.310;10.112;2022-08-25T17:08:54;24.90;99.90
9177;DHT22;4623;54.310;10.112;2022-08-25T17:11:23;24.80;99.90
9177;DHT22;4623;54.310;10.112;2022-08-25T17:13:51;24.70;99.90
9177;DHT22;4623;54.310;10.112;2022-08-25T17:16:20;24.70;99.90
9177;DHT22;4623;54.310;10.112;2022-08-25T17:18:47;24.70;99.90
9177;DHT22;4623;54.310;10.112;2022-08-25T17:21:15;24.70;99.90
9177;DHT22;4623;54.310;10.112;2022-08-25T17:23:42;24.60;99.90
9177;DHT22;4623;54.310;10.112;2022-08-25T17:26:09;24.60;99.90
9177;DHT22;4623;54.310;10.112;2022-08-25T17:28:36;24.60;99.90
9177;DHT22;4623;54.310;10.112;2022-08-25T17:31:02;24.50;99.90
9177;DHT22;4623;54.310;10.112;2022-08-25T17:33:28;24.50;99.90
9177;DHT22;4623;54.310;10.112;2022-08-25T17:35:54;24.50;99.90
9177;DHT22;4623;54.310;10.112;2022-08-25T17:38:22;24.50;99.90
9177;DHT22;4623;54.310;10.112;2022-08-25T17:40:58;24.50;99.90
9177;DHT22;4623;54.310;10.112;2022-08-25T17:43:25;24.30;99.90
9177;DHT22;4623;54.310;10.112;2022-08-25T17:45:52;24.30;99.90
9177;DHT22;4623;54.310;10.112;2022-08-25T17:48:19;24.30;99.90